Station History

Weather Underground - logo

Station Historical Data
Daily Summary for February 12, 2018 Units:  English    Metric   Both
« Previous Day
Next Day »
Daily Weekly Monthly Yearly Custom
  High: Low: Average:
Temperature: 57.4 °F 36.4 °F 47.6 °F
Dew Point: 44.3 °F 33.7 °F 40.1 °F
Humidity: 91 % 56 % 76 %
Wind Speed: 6.9 mph 0.0 mph 0.8 mph
Wind Gust: 4.0 mph - -
Wind:- - SW
Pressure: 30.00 in 29.84 in -
Precipitation: 0.00 in    
Historical Graphs
 
 
Tabular Data for February 12, 2018
Time Temperature Dew Point Pressure Wind Wind Speed Wind Gust Humidity Rainfall Rate (Hourly)
00:00 45.1 °F 39.3 °F 29.86 in Calm     80 % 0.00 in
00:05 44.9 °F 39.1 °F 29.86 in Calm     80 % 0.00 in
00:10 44.7 °F 39.2 °F 29.86 in Calm     81 % 0.00 in
00:15 44.5 °F 39.0 °F 29.86 in Calm     81 % 0.00 in
00:20 44.4 °F 38.9 °F 29.86 in Calm     81 % 0.00 in
00:25 44.3 °F 39.2 °F 29.87 in Calm     82 % 0.00 in
00:30 44.2 °F 39.1 °F 29.87 in Calm     82 % 0.00 in
00:35 44.1 °F 39.0 °F 29.87 in Calm     82 % 0.00 in
00:40 43.9 °F 39.1 °F 29.87 in Calm     83 % 0.00 in
00:45 43.6 °F 38.8 °F 29.88 in Calm     83 % 0.00 in
00:50 43.4 °F 38.6 °F 29.88 in SE 1.0 mph   83 % 0.00 in
00:55 43.4 °F 38.9 °F 29.88 in SE 1.2 mph   84 % 0.00 in
01:00 43.2 °F 38.7 °F 29.88 in Calm     84 % 0.00 in
01:05 43.1 °F 38.6 °F 29.88 in Calm     84 % 0.00 in
01:10 42.9 °F 38.4 °F 29.88 in Calm     84 % 0.00 in
01:15 42.8 °F 38.3 °F 29.88 in Calm     84 % 0.00 in
01:20 42.7 °F 38.5 °F 29.88 in Calm   0.1 mph 85 % 0.00 in
01:25 42.5 °F 38.3 °F 29.88 in Calm     85 % 0.00 in
01:30 42.2 °F 38.0 °F 29.88 in Calm     85 % 0.00 in
01:35 42.0 °F 37.8 °F 29.88 in Calm     85 % 0.00 in
01:40 41.7 °F 37.8 °F 29.88 in Calm     86 % 0.00 in
01:45 41.6 °F 37.7 °F 29.88 in Calm     86 % 0.00 in
01:50 41.4 °F 37.5 °F 29.88 in Calm     86 % 0.00 in
01:55 41.2 °F 37.6 °F 29.88 in Calm     87 % 0.00 in
02:00 41.1 °F 37.5 °F 29.88 in Calm     87 % 0.00 in
02:05 41.2 °F 37.6 °F 29.88 in SE 6.9 mph   87 % 0.00 in
02:10 41.3 °F 37.7 °F 29.87 in Calm     87 % 0.00 in
02:15 41.3 °F 37.7 °F 29.87 in Calm     87 % 0.00 in
02:20 41.3 °F 37.7 °F 29.87 in Calm     87 % 0.00 in
02:25 41.3 °F 37.7 °F 29.87 in Calm     87 % 0.00 in
02:30 41.4 °F 37.5 °F 29.87 in Calm     86 % 0.00 in
02:35 41.3 °F 37.7 °F 29.87 in Calm     87 % 0.00 in
02:40 41.3 °F 37.7 °F 29.86 in Calm     87 % 0.00 in
02:45 41.3 °F 37.7 °F 29.86 in Calm     87 % 0.00 in
02:50 41.1 °F 37.5 °F 29.86 in Calm     87 % 0.00 in
02:55 41.1 °F 37.5 °F 29.86 in Calm     87 % 0.00 in
03:00 41.1 °F 37.5 °F 29.86 in Calm     87 % 0.00 in
03:05 40.8 °F 37.2 °F 29.86 in Calm     87 % 0.00 in
03:10 40.6 °F 37.0 °F 29.85 in Calm     87 % 0.00 in
03:14 40.5 °F 37.2 °F 29.85 in Calm     88 % 0.00 in
03:19 40.3 °F 37.0 °F 29.85 in Calm     88 % 0.00 in
03:24 40.0 °F 36.7 °F 29.85 in Calm     88 % 0.00 in
03:29 39.7 °F 36.1 °F 29.85 in Calm     87 % 0.00 in
03:34 39.5 °F 36.5 °F 29.85 in SE 1.2 mph 1.2 mph 89 % 0.00 in
03:39 39.7 °F 36.7 °F 29.85 in Calm     89 % 0.00 in
03:44 39.8 °F 36.5 °F 29.85 in Calm     88 % 0.00 in
03:49 39.6 °F 36.3 °F 29.85 in Calm     88 % 0.00 in
03:54 39.4 °F 36.1 °F 29.85 in Calm     88 % 0.00 in
03:59 39.8 °F 36.8 °F 29.85 in Calm     89 % 0.00 in
04:04 40.1 °F 37.1 °F 29.84 in Calm     89 % 0.00 in
04:09 40.0 °F 36.7 °F 29.84 in Calm     88 % 0.00 in
04:14 39.7 °F 36.4 °F 29.84 in Calm     88 % 0.00 in
04:19 39.5 °F 36.2 °F 29.84 in Calm     88 % 0.00 in
04:24 39.3 °F 36.3 °F 29.84 in Calm     89 % 0.00 in
04:29 38.9 °F 35.6 °F 29.84 in Calm     88 % 0.00 in
04:34 38.8 °F 35.8 °F 29.84 in Calm     89 % 0.00 in
04:39 38.7 °F 35.5 °F 29.84 in Calm     88 % 0.00 in
04:44 38.9 °F 35.9 °F 29.84 in Calm     89 % 0.00 in
04:49 38.9 °F 35.9 °F 29.84 in Calm     89 % 0.00 in
04:55 38.9 °F 35.9 °F 29.84 in Calm     89 % 0.00 in
05:00 38.9 °F 35.9 °F 29.84 in Calm     89 % 0.00 in
05:05 38.3 °F 35.1 °F 29.84 in Calm     88 % 0.00 in
05:10 38.0 °F 35.0 °F 29.84 in Calm     89 % 0.00 in
05:15 37.8 °F 34.8 °F 29.85 in Calm     89 % 0.00 in
05:20 37.7 °F 35.0 °F 29.85 in Calm     90 % 0.00 in
05:25 37.5 °F 34.8 °F 29.85 in Calm     90 % 0.00 in
05:30 37.2 °F 34.3 °F 29.85 in Calm     89 % 0.00 in
05:35 36.8 °F 33.9 °F 29.85 in Calm     89 % 0.00 in
05:40 36.6 °F 33.9 °F 29.85 in Calm     90 % 0.00 in
05:45 36.4 °F 33.7 °F 29.86 in Calm     90 % 0.00 in
05:50 36.7 °F 34.3 °F 29.86 in Calm     91 % 0.00 in
05:55 36.9 °F 34.5 °F 29.86 in Calm     91 % 0.00 in
06:00 37.2 °F 34.8 °F 29.87 in Calm     91 % 0.00 in
06:05 37.3 °F 34.9 °F 29.87 in Calm     91 % 0.00 in
06:10 37.6 °F 35.2 °F 29.87 in Calm     91 % 0.00 in
06:15 38.1 °F 35.7 °F 29.87 in Calm     91 % 0.00 in
06:20 38.5 °F 36.1 °F 29.88 in Calm     91 % 0.00 in
06:25 38.9 °F 36.5 °F 29.88 in Calm   0.1 mph 91 % 0.00 in
06:30 39.4 °F 37.0 °F 29.88 in SE 1.2 mph   91 % 0.00 in
06:35 39.9 °F 37.2 °F 29.88 in SE 1.2 mph   90 % 0.00 in
06:40 40.3 °F 37.6 °F 29.88 in Calm     90 % 0.00 in
06:45 40.6 °F 37.9 °F 29.88 in SE 1.2 mph 1.2 mph 90 % 0.00 in
06:50 40.9 °F 38.2 °F 29.88 in Calm     90 % 0.00 in
06:55 41.1 °F 38.4 °F 29.88 in SE 1.2 mph   90 % 0.00 in
07:00 41.3 °F 38.6 °F 29.88 in Calm     90 % 0.00 in
07:05 41.5 °F 38.8 °F 29.88 in SE 1.2 mph   90 % 0.00 in
07:10 41.7 °F 39.0 °F 29.89 in SE 1.2 mph   90 % 0.00 in
07:15 41.9 °F 38.9 °F 29.89 in Calm     89 % 0.00 in
07:20 42.1 °F 39.1 °F 29.89 in Calm     89 % 0.00 in
07:25 42.3 °F 39.3 °F 29.89 in SE 3.0 mph 3.0 mph 89 % 0.00 in
07:30 42.5 °F 39.5 °F 29.88 in SE 1.2 mph 1.2 mph 89 % 0.00 in
07:35 42.7 °F 39.7 °F 29.88 in SE 1.2 mph 1.2 mph 89 % 0.00 in
07:40 42.9 °F 39.9 °F 29.88 in SE 1.2 mph 1.2 mph 89 % 0.00 in
07:45 43.1 °F 40.1 °F 29.88 in Calm     89 % 0.00 in
07:50 43.5 °F 40.2 °F 29.88 in SE 1.2 mph 1.2 mph 88 % 0.00 in
07:55 43.8 °F 40.5 °F 29.88 in SE 1.2 mph   88 % 0.00 in
08:00 44.1 °F 40.8 °F 29.89 in Calm     88 % 0.00 in
08:05 44.5 °F 41.2 °F 29.88 in Calm     88 % 0.00 in
08:10 44.9 °F 41.3 °F 29.89 in SE 1.2 mph   87 % 0.00 in
08:15 45.3 °F 41.7 °F 29.89 in Calm     87 % 0.00 in
08:20 45.7 °F 41.8 °F 29.89 in SE 1.2 mph 1.2 mph 86 % 0.00 in
08:25 46.1 °F 42.1 °F 29.89 in SE 1.2 mph   86 % 0.00 in
08:30 46.4 °F 42.1 °F 29.89 in SE 1.2 mph 1.2 mph 85 % 0.00 in
08:35 46.8 °F 42.2 °F 29.89 in SE 2.0 mph 2.0 mph 84 % 0.00 in
08:41 47.1 °F 42.2 °F 29.89 in SE 1.0 mph 1.0 mph 83 % 0.00 in
08:46 47.4 °F 41.9 °F 29.89 in ESE 3.5 mph 3.5 mph 81 % 0.00 in
08:51 47.8 °F 41.9 °F 29.89 in ESE 1.0 mph   80 % 0.00 in
08:56 48.2 °F 42.3 °F 29.89 in Calm     80 % 0.00 in
09:01 48.4 °F 41.9 °F 29.89 in ESE 1.2 mph   78 % 0.00 in
09:06 48.6 °F 42.0 °F 29.90 in ESE 1.2 mph 1.2 mph 78 % 0.00 in
09:11 48.9 °F 42.0 °F 29.90 in ESE 1.2 mph 1.2 mph 77 % 0.00 in
09:16 49.0 °F 41.8 °F 29.90 in ESE 1.2 mph 1.2 mph 76 % 0.00 in
09:21 49.0 °F 41.8 °F 29.90 in ESE 1.2 mph 1.2 mph 76 % 0.00 in
09:26 49.1 °F 41.5 °F 29.90 in Calm     75 % 0.00 in
09:31 49.1 °F 41.9 °F 29.90 in Calm     76 % 0.00 in
09:36 49.2 °F 42.0 °F 29.90 in Calm     76 % 0.00 in
09:41 49.2 °F 41.6 °F 29.90 in ESE 1.2 mph 1.2 mph 75 % 0.00 in
09:46 49.2 °F 42.0 °F 29.90 in Calm     76 % 0.00 in
09:51 49.3 °F 42.1 °F 29.90 in Calm     76 % 0.00 in
09:56 49.4 °F 42.1 °F 29.90 in Calm     76 % 0.00 in
10:01 49.5 °F 41.9 °F 29.91 in ESE 1.2 mph 1.2 mph 75 % 0.00 in
10:06 49.5 °F 41.9 °F 29.91 in ESE 1.2 mph 1.2 mph 75 % 0.00 in
10:11 49.6 °F 42.0 °F 29.91 in ESE 1.2 mph   75 % 0.00 in
10:16 49.6 °F 42.0 °F 29.91 in ESE 1.2 mph   75 % 0.00 in
10:21 49.8 °F 42.2 °F 29.91 in ESE 1.2 mph   75 % 0.00 in
10:26 49.9 °F 41.9 °F 29.91 in Calm     74 % 0.00 in
10:31 50.0 °F 42.4 °F 29.91 in Calm     75 % 0.00 in
10:36 50.2 °F 42.2 °F 29.91 in Calm     74 % 0.00 in
10:41 50.5 °F 42.5 °F 29.91 in Calm     74 % 0.00 in
10:46 50.8 °F 42.5 °F 29.91 in East 1.2 mph   73 % 0.00 in
10:51 51.0 °F 42.6 °F 29.90 in Calm     73 % 0.00 in
10:56 51.3 °F 42.2 °F 29.90 in Calm     71 % 0.00 in
11:01 51.5 °F 42.8 °F 29.90 in Calm     72 % 0.00 in
11:06 51.9 °F 42.4 °F 29.90 in Calm     70 % 0.00 in
11:11 52.0 °F 42.5 °F 29.90 in Calm     70 % 0.00 in
11:16 52.5 °F 43.0 °F 29.90 in SSE 1.2 mph   70 % 0.00 in
11:21 52.9 °F 43.0 °F 29.90 in Calm     69 % 0.00 in
11:26 53.1 °F 42.8 °F 29.90 in South 2.3 mph   68 % 0.00 in
11:31 53.3 °F 42.6 °F 29.90 in Calm   0.2 mph 67 % 0.00 in
11:36 53.7 °F 43.4 °F 29.90 in NW 1.2 mph 1.2 mph 68 % 0.00 in
11:41 54.2 °F 42.7 °F 29.89 in WNW 2.3 mph 2.3 mph 65 % 0.00 in
11:46 54.7 °F 42.8 °F 29.89 in NW 2.3 mph 2.3 mph 64 % 0.00 in
11:51 55.5 °F 44.3 °F 29.89 in South 2.3 mph 2.3 mph 66 % 0.00 in
11:56 55.9 °F 42.6 °F 29.88 in Calm     61 % 0.00 in
12:01 55.9 °F 42.6 °F 29.88 in NW 2.3 mph 2.3 mph 61 % 0.00 in
12:06 55.5 °F 42.3 °F 29.88 in Calm     61 % 0.00 in
12:11 56.2 °F 44.2 °F 29.88 in Calm     64 % 0.00 in
12:16 57.0 °F 44.1 °F 29.88 in Calm     62 % 0.00 in
12:21 57.4 °F 43.2 °F 29.88 in NW 2.3 mph 2.3 mph 59 % 0.00 in
12:26 56.9 °F 44.0 °F 29.87 in SE 1.2 mph 1.2 mph 62 % 0.00 in
12:30 56.9 °F 42.3 °F 29.87 in East 3.0 mph 3.0 mph 58 % 0.00 in
12:35 56.8 °F 41.7 °F 29.87 in ENE 3.5 mph 3.5 mph 57 % 0.00 in
12:40 56.6 °F 42.4 °F 29.87 in NNE 1.2 mph 1.2 mph 59 % 0.00 in
12:45 56.4 °F 42.2 °F 29.87 in WNW 3.5 mph 3.5 mph 59 % 0.00 in
12:50 56.2 °F 42.1 °F 29.86 in NW 3.5 mph 3.5 mph 59 % 0.00 in
12:55 56.2 °F 42.1 °F 29.86 in West 1.2 mph   59 % 0.00 in
13:00 56.7 °F 42.1 °F 29.86 in WNW 2.3 mph 2.3 mph 58 % 0.00 in
13:05 56.8 °F 41.3 °F 29.86 in WNW 3.5 mph 3.5 mph 56 % 0.00 in
13:10 56.6 °F 41.5 °F 29.86 in East 1.2 mph 1.2 mph 57 % 0.00 in
13:15 57.0 °F 41.9 °F 29.86 in NW 3.5 mph 3.5 mph 57 % 0.00 in
13:21 57.4 °F 41.8 °F 29.86 in NW 3.5 mph 3.5 mph 56 % 0.00 in
13:26 57.3 °F 41.7 °F 29.86 in WNW 3.5 mph 3.5 mph 56 % 0.00 in
13:31 56.6 °F 42.0 °F 29.86 in NW 3.5 mph 3.5 mph 58 % 0.00 in
13:36 56.2 °F 41.6 °F 29.86 in NW 2.0 mph 2.0 mph 58 % 0.00 in
13:41 56.4 °F 41.8 °F 29.86 in NW 4.0 mph 4.0 mph 58 % 0.00 in
13:46 56.1 °F 41.5 °F 29.86 in NW 2.3 mph 2.3 mph 58 % 0.00 in
13:51 55.9 °F 41.8 °F 29.86 in NW 1.2 mph   59 % 0.00 in
13:56 56.1 °F 42.0 °F 29.86 in NW 3.5 mph 3.5 mph 59 % 0.00 in
14:01 56.4 °F 42.2 °F 29.86 in NE 2.3 mph 2.3 mph 59 % 0.00 in
14:06 56.3 °F 41.7 °F 29.86 in Calm     58 % 0.00 in
14:11 56.3 °F 42.6 °F 29.86 in NW 1.2 mph 1.2 mph 60 % 0.00 in
14:16 56.1 °F 42.0 °F 29.86 in NW 2.3 mph 2.3 mph 59 % 0.00 in
14:21 55.9 °F 41.8 °F 29.86 in WSW 2.3 mph 2.3 mph 59 % 0.00 in
14:26 55.8 °F 42.1 °F 29.86 in NW 1.2 mph 1.2 mph 60 % 0.00 in
14:31 55.8 °F 41.7 °F 29.86 in NNW 3.5 mph 3.5 mph 59 % 0.00 in
14:36 55.8 °F 41.7 °F 29.86 in NNW 1.0 mph 1.0 mph 59 % 0.00 in
14:41 55.8 °F 41.7 °F 29.86 in NW 3.5 mph 3.5 mph 59 % 0.00 in
14:46 55.7 °F 41.6 °F 29.86 in WNW 2.3 mph 2.3 mph 59 % 0.00 in
14:51 55.6 °F 41.5 °F 29.86 in NW 1.2 mph 1.2 mph 59 % 0.00 in
14:56 55.5 °F 41.0 °F 29.86 in NNW 2.3 mph 2.3 mph 58 % 0.00 in
15:01 55.5 °F 41.0 °F 29.86 in NNW 2.0 mph 2.0 mph 58 % 0.00 in
15:06 55.6 °F 41.0 °F 29.86 in NW 2.3 mph 2.3 mph 58 % 0.00 in
15:11 55.7 °F 41.1 °F 29.86 in WNW 2.3 mph 2.3 mph 58 % 0.00 in
15:16 55.9 °F 41.3 °F 29.86 in NW 3.5 mph 3.5 mph 58 % 0.00 in
15:21 55.9 °F 41.3 °F 29.86 in NNW 3.5 mph 3.5 mph 58 % 0.00 in
15:26 55.9 °F 41.3 °F 29.86 in NW 2.3 mph 2.3 mph 58 % 0.00 in
15:31 55.8 °F 40.8 °F 29.86 in NW 2.3 mph 2.3 mph 57 % 0.00 in
15:36 55.9 °F 42.2 °F 29.86 in NW 3.5 mph 3.5 mph 60 % 0.00 in
15:41 55.7 °F 42.0 °F 29.86 in NW 4.0 mph 4.0 mph 60 % 0.00 in
15:46 55.4 °F 41.7 °F 29.86 in NW 1.2 mph 1.2 mph 60 % 0.00 in
15:51 55.4 °F 41.7 °F 29.86 in Calm     60 % 0.00 in
15:56 55.2 °F 41.5 °F 29.86 in NW 1.2 mph 1.2 mph 60 % 0.00 in
16:01 55.1 °F 41.5 °F 29.86 in NW 1.2 mph 1.2 mph 60 % 0.00 in
16:06 55.1 °F 41.0 °F 29.86 in NW 1.2 mph 1.2 mph 59 % 0.00 in
16:11 55.1 °F 41.0 °F 29.87 in NW 2.3 mph 2.3 mph 59 % 0.00 in
16:16 55.2 °F 41.5 °F 29.87 in NW 1.2 mph 1.2 mph 60 % 0.00 in
16:21 55.3 °F 40.8 °F 29.87 in NW 3.5 mph 3.5 mph 58 % 0.00 in
16:26 55.2 °F 41.1 °F 29.87 in NW 4.0 mph 4.0 mph 59 % 0.00 in
16:31 55.1 °F 41.0 °F 29.87 in NW 3.5 mph 3.5 mph 59 % 0.00 in
16:36 55.1 °F 41.0 °F 29.87 in NW 3.5 mph 3.5 mph 59 % 0.00 in
16:41 55.1 °F 41.5 °F 29.87 in NW 2.3 mph 2.3 mph 60 % 0.00 in
16:47 55.1 °F 41.5 °F 29.87 in NW 2.3 mph   60 % 0.00 in
16:52 54.9 °F 41.7 °F 29.87 in WNW 2.3 mph   61 % 0.00 in
16:57 54.8 °F 42.0 °F 29.87 in NNW 1.2 mph 1.2 mph 62 % 0.00 in
17:02 54.7 °F 42.3 °F 29.87 in WNW 2.3 mph 2.3 mph 63 % 0.00 in
17:07 54.6 °F 41.8 °F 29.87 in WNW 1.2 mph 1.2 mph 62 % 0.00 in
17:12 54.5 °F 42.2 °F 29.87 in NW 3.5 mph 3.5 mph 63 % 0.00 in
17:17 54.2 °F 41.9 °F 29.88 in NNW 3.5 mph 3.5 mph 63 % 0.00 in
17:22 54.1 °F 41.8 °F 29.87 in NW 2.3 mph 2.3 mph 63 % 0.00 in
17:27 53.9 °F 41.6 °F 29.88 in NW 1.2 mph   63 % 0.00 in
17:32 53.8 °F 41.9 °F 29.88 in NNW 2.3 mph 2.3 mph 64 % 0.00 in
17:37 53.6 °F 42.1 °F 29.88 in NW 2.3 mph 2.3 mph 65 % 0.00 in
17:42 53.3 °F 41.8 °F 29.88 in NW 1.2 mph 1.2 mph 65 % 0.00 in
17:47 53.2 °F 42.1 °F 29.88 in Calm     66 % 0.00 in
17:52 53.0 °F 42.3 °F 29.88 in Calm     67 % 0.00 in
17:57 52.8 °F 42.1 °F 29.88 in Calm     67 % 0.00 in
18:02 52.8 °F 42.5 °F 29.88 in Calm     68 % 0.00 in
18:07 52.6 °F 42.3 °F 29.89 in Calm     68 % 0.00 in
18:12 52.5 °F 42.2 °F 29.89 in Calm     68 % 0.00 in
18:17 52.5 °F 42.2 °F 29.89 in Calm     68 % 0.00 in
18:22 52.4 °F 42.1 °F 29.89 in Calm     68 % 0.00 in
18:27 52.4 °F 41.8 °F 29.89 in Calm     67 % 0.00 in
18:32 52.2 °F 42.0 °F 29.89 in Calm     68 % 0.00 in
18:37 52.1 °F 41.9 °F 29.90 in Calm     68 % 0.00 in
18:42 51.9 °F 41.7 °F 29.90 in Calm     68 % 0.00 in
18:47 51.8 °F 41.6 °F 29.90 in Calm     68 % 0.00 in
18:52 51.6 °F 41.4 °F 29.90 in Calm     68 % 0.00 in
18:57 51.4 °F 41.6 °F 29.90 in Calm     69 % 0.00 in
19:02 51.1 °F 42.0 °F 29.90 in Calm     71 % 0.00 in
19:07 50.5 °F 42.2 °F 29.91 in Calm     73 % 0.00 in
19:12 50.0 °F 42.0 °F 29.91 in Calm     74 % 0.00 in
19:17 49.6 °F 42.0 °F 29.91 in Calm     75 % 0.00 in
19:22 49.4 °F 41.8 °F 29.91 in Calm     75 % 0.00 in
19:27 49.2 °F 41.6 °F 29.91 in Calm     75 % 0.00 in
19:32 49.3 °F 41.7 °F 29.91 in Calm     75 % 0.00 in
19:37 49.4 °F 41.8 °F 29.91 in Calm     75 % 0.00 in
19:42 49.5 °F 41.9 °F 29.91 in Calm     75 % 0.00 in
19:47 49.5 °F 41.6 °F 29.91 in Calm     74 % 0.00 in
19:52 49.3 °F 41.7 °F 29.92 in Calm     75 % 0.00 in
19:57 49.0 °F 41.4 °F 29.92 in Calm     75 % 0.00 in
20:02 48.6 °F 41.7 °F 29.92 in Calm     77 % 0.00 in
20:07 48.5 °F 41.3 °F 29.92 in Calm     76 % 0.00 in
20:12 48.8 °F 41.6 °F 29.92 in Calm     76 % 0.00 in
20:17 48.8 °F 41.6 °F 29.92 in Calm     76 % 0.00 in
20:22 48.7 °F 41.5 °F 29.93 in Calm     76 % 0.00 in
20:27 48.6 °F 41.4 °F 29.93 in Calm     76 % 0.00 in
20:33 48.4 °F 41.5 °F 29.93 in Calm     77 % 0.00 in
20:38 48.2 °F 41.3 °F 29.93 in Calm     77 % 0.00 in
20:43 47.9 °F 41.0 °F 29.93 in Calm     77 % 0.00 in
20:48 47.7 °F 41.2 °F 29.94 in Calm     78 % 0.00 in
20:53 47.4 °F 40.9 °F 29.94 in Calm     78 % 0.00 in
20:58 47.3 °F 41.1 °F 29.94 in Calm     79 % 0.00 in
21:03 47.2 °F 41.0 °F 29.94 in Calm     79 % 0.00 in
21:08 46.9 °F 40.7 °F 29.94 in Calm     79 % 0.00 in
21:13 46.3 °F 40.8 °F 29.95 in Calm     81 % 0.00 in
21:18 46.2 °F 40.7 °F 29.95 in Calm     81 % 0.00 in
21:23 46.3 °F 40.8 °F 29.95 in Calm     81 % 0.00 in
21:28 46.7 °F 40.9 °F 29.95 in Calm     80 % 0.00 in
21:33 47.0 °F 41.1 °F 29.95 in Calm     80 % 0.00 in
21:38 47.1 °F 40.9 °F 29.95 in Calm     79 % 0.00 in
21:43 47.0 °F 40.8 °F 29.95 in Calm     79 % 0.00 in
21:48 47.0 °F 40.8 °F 29.96 in NW 1.0 mph   79 % 0.00 in
21:53 46.8 °F 40.6 °F 29.96 in Calm     79 % 0.00 in
21:58 46.6 °F 40.8 °F 29.96 in Calm     80 % 0.00 in
22:03 46.5 °F 40.7 °F 29.96 in Calm     80 % 0.00 in
22:08 46.4 °F 40.6 °F 29.96 in Calm     80 % 0.00 in
22:13 46.4 °F 40.6 °F 29.96 in Calm     80 % 0.00 in
22:18 46.4 °F 40.2 °F 29.97 in Calm     79 % 0.00 in
22:23 46.2 °F 40.4 °F 29.97 in Calm     80 % 0.00 in
22:28 46.1 °F 40.3 °F 29.97 in Calm     80 % 0.00 in
22:33 45.8 °F 40.0 °F 29.97 in Calm     80 % 0.00 in
22:38 45.2 °F 39.7 °F 29.97 in Calm     81 % 0.00 in
22:43 44.7 °F 39.5 °F 29.97 in Calm     82 % 0.00 in
22:48 44.3 °F 39.2 °F 29.97 in Calm     82 % 0.00 in
22:53 44.1 °F 39.3 °F 29.98 in Calm     83 % 0.00 in
22:58 43.9 °F 39.1 °F 29.98 in Calm     83 % 0.00 in
23:03 43.5 °F 38.7 °F 29.98 in Calm     83 % 0.00 in
23:08 43.0 °F 38.5 °F 29.98 in Calm     84 % 0.00 in
23:13 42.5 °F 38.0 °F 29.98 in NNE 1.2 mph   84 % 0.00 in
23:18 42.1 °F 37.9 °F 29.99 in Calm     85 % 0.00 in
23:23 41.9 °F 38.0 °F 29.99 in Calm     86 % 0.00 in
23:28 41.7 °F 37.8 °F 29.98 in Calm     86 % 0.00 in
23:33 41.4 °F 37.5 °F 29.99 in Calm     86 % 0.00 in
23:38 41.2 °F 37.6 °F 29.99 in Calm     87 % 0.00 in
23:43 40.9 °F 37.3 °F 29.99 in Calm     87 % 0.00 in
23:48 40.6 °F 37.0 °F 29.99 in Calm     87 % 0.00 in
23:53 40.4 °F 37.1 °F 29.99 in Calm     88 % 0.00 in
23:58 40.2 °F 36.9 °F 30.00 in Calm     88 % 0.00 in
Park Place, Exeter, Tulare County, California, USA
Compliments of Weather Underground - 2.75 mb